createdAt,value
2022-08-25T00:01:14.961Z,17
2022-08-25T00:04:14.367Z,18
2022-08-25T00:07:14.356Z,15
2022-08-25T00:10:14.375Z,17
2022-08-25T00:12:14.409Z,16
2022-08-25T00:15:14.363Z,15
2022-08-25T00:18:19.602Z,15
2022-08-25T00:20:14.721Z,16
2022-08-25T00:23:14.357Z,15
2022-08-25T00:25:14.391Z,15
2022-08-25T00:27:14.368Z,15
2022-08-25T00:30:14.376Z,18
2022-08-25T00:33:14.378Z,14
2022-08-25T00:35:14.392Z,15
2022-08-25T00:37:15.052Z,16
2022-08-25T00:40:14.586Z,17
2022-08-25T00:43:14.397Z,14
2022-08-25T00:45:14.464Z,14
2022-08-25T00:47:14.404Z,16
2022-08-25T00:50:14.555Z,13
2022-08-25T00:53:14.494Z,14
2022-08-25T00:56:14.584Z,16
2022-08-25T00:59:14.402Z,16
2022-08-25T01:02:14.514Z,15
2022-08-25T01:04:14.447Z,15
2022-08-25T01:07:15.561Z,14
2022-08-25T01:09:14.462Z,16
2022-08-25T01:12:14.421Z,15
2022-08-25T01:15:14.389Z,17
2022-08-25T01:20:14.421Z,14
2022-08-25T01:23:14.708Z,18
2022-08-25T01:26:14.416Z,17
2022-08-25T01:28:14.865Z,17
2022-08-25T01:31:23.367Z,15
2022-08-25T01:33:14.429Z,14
2022-08-25T01:36:14.416Z,18
2022-08-25T01:39:14.550Z,15
2022-08-25T01:42:14.429Z,16
2022-08-25T01:45:14.416Z,17
2022-08-25T01:48:14.401Z,16
2022-08-25T01:51:14.357Z,19
2022-08-25T01:53:14.409Z,18
2022-08-25T01:56:14.359Z,19
2022-08-25T01:58:14.453Z,21
2022-08-25T02:01:14.391Z,20
2022-08-25T02:04:14.368Z,16
2022-08-25T02:06:14.396Z,19
2022-08-25T02:09:14.405Z,16
2022-08-25T02:12:14.377Z,18
2022-08-25T02:14:14.466Z,17
2022-08-25T02:17:14.393Z,18
2022-08-25T02:20:14.387Z,16
2022-08-25T02:22:14.375Z,17
2022-08-25T02:25:14.423Z,18
2022-08-25T02:28:14.409Z,17
2022-08-25T02:30:14.430Z,17
2022-08-25T02:33:14.376Z,17
2022-08-25T02:35:14.389Z,19
2022-08-25T02:37:14.823Z,17
2022-08-25T02:40:14.877Z,18
2022-08-25T02:43:14.588Z,18
2022-08-25T02:45:14.422Z,19
2022-08-25T02:48:14.468Z,17
2022-08-25T02:50:14.532Z,24
2022-08-25T02:52:14.445Z,16
2022-08-25T02:55:14.498Z,18
2022-08-25T02:57:14.718Z,20
2022-08-25T03:00:14.524Z,19
2022-08-25T03:03:14.460Z,19
2022-08-25T03:06:14.469Z,17
2022-08-25T03:08:14.577Z,21
2022-08-25T03:11:14.701Z,20
2022-08-25T03:13:14.432Z,19
2022-08-25T03:16:14.536Z,20
2022-08-25T03:19:14.439Z,18
2022-08-25T03:22:14.492Z,21
2022-08-25T03:24:14.481Z,20
2022-08-25T03:27:14.682Z,20
2022-08-25T03:30:14.418Z,22
2022-08-25T03:32:14.588Z,22
2022-08-25T03:35:14.465Z,17
2022-08-25T03:38:14.456Z,24
2022-08-25T03:40:14.753Z,24
2022-08-25T03:43:14.458Z,21
2022-08-25T03:45:14.466Z,20
2022-08-25T03:48:14.494Z,22
2022-08-25T03:51:14.468Z,24
2022-08-25T03:54:14.469Z,22
2022-08-25T03:56:14.453Z,23
2022-08-25T03:59:14.465Z,23
2022-08-25T04:01:14.538Z,22
2022-08-25T04:04:14.546Z,23
2022-08-25T04:07:14.466Z,21
2022-08-25T04:10:14.472Z,20
2022-08-25T04:12:14.492Z,23
2022-08-25T04:15:14.477Z,25
2022-08-25T04:18:14.455Z,22
2022-08-25T04:20:14.475Z,22
2022-08-25T04:23:14.473Z,23
2022-08-25T04:25:14.531Z,26
2022-08-25T04:28:14.428Z,21
2022-08-25T04:30:14.505Z,27
2022-08-25T04:33:14.473Z,22
2022-08-25T04:35:14.485Z,23
2022-08-25T04:38:14.424Z,26
2022-08-25T04:41:14.427Z,23
2022-08-25T04:43:14.453Z,23
2022-08-25T04:45:15.213Z,22
2022-08-25T04:48:14.446Z,22
2022-08-25T04:50:14.458Z,23
2022-08-25T04:52:14.776Z,21
2022-08-25T04:55:14.467Z,24
2022-08-25T04:58:14.827Z,25
2022-08-25T05:00:14.414Z,23
2022-08-25T05:02:14.423Z,24
2022-08-25T05:04:28.675Z,24
2022-08-25T05:07:14.477Z,24
2022-08-25T05:10:14.472Z,27
2022-08-25T05:13:14.432Z,21
2022-08-25T05:15:14.447Z,28
2022-08-25T05:17:14.438Z,24
2022-08-25T05:19:14.468Z,24
2022-08-25T05:21:14.786Z,30
2022-08-25T05:24:14.462Z,22
2022-08-25T05:26:19.171Z,21
2022-08-25T05:29:14.567Z,25
2022-08-25T05:31:14.512Z,26
2022-08-25T05:33:14.561Z,27
2022-08-25T05:36:16.778Z,25
2022-08-25T05:39:14.509Z,28
2022-08-25T05:42:14.468Z,28
2022-08-25T05:45:16.743Z,23
2022-08-25T05:47:14.516Z,24
2022-08-25T05:50:14.494Z,24
2022-08-25T05:52:18.105Z,30
2022-08-25T05:55:46.761Z,24
2022-08-25T05:57:15.056Z,28
2022-08-25T06:00:14.499Z,26
2022-08-25T06:03:14.625Z,27
2022-08-25T06:06:14.531Z,26
2022-08-25T06:09:14.523Z,26
2022-08-25T06:12:14.498Z,27
2022-08-25T06:14:14.584Z,27
2022-08-25T06:16:14.619Z,27
2022-08-25T06:19:14.740Z,27
2022-08-25T06:22:14.482Z,30
2022-08-25T06:24:15.885Z,27
2022-08-25T06:26:19.573Z,26
2022-08-25T06:29:14.536Z,28
2022-08-25T06:32:14.494Z,29
2022-08-25T06:35:14.528Z,32
2022-08-25T06:37:14.521Z,29
2022-08-25T06:39:14.916Z,28
2022-08-25T06:42:14.525Z,26
2022-08-25T06:44:14.532Z,27
2022-08-25T06:47:14.524Z,27
2022-08-25T06:49:14.534Z,27
2022-08-25T06:51:14.531Z,28
2022-08-25T06:53:14.538Z,30
2022-08-25T06:56:14.554Z,32
2022-08-25T06:59:14.552Z,28
2022-08-25T07:01:15.674Z,25
2022-08-25T07:03:14.577Z,24
2022-08-25T07:06:14.538Z,31
2022-08-25T07:08:14.532Z,31
2022-08-25T07:11:16.488Z,28
2022-08-25T07:13:14.513Z,27
2022-08-25T07:16:14.637Z,31
2022-08-25T07:18:14.568Z,34
2022-08-25T07:21:14.584Z,33
2022-08-25T07:23:14.534Z,28
2022-08-25T07:26:33.975Z,30
2022-08-25T07:29:14.531Z,31
2022-08-25T07:32:14.510Z,28
2022-08-25T07:35:14.515Z,33
2022-08-25T07:38:19.708Z,26
2022-08-25T07:40:14.594Z,30
2022-08-25T07:43:14.593Z,36
2022-08-25T07:45:15.469Z,34
2022-08-25T07:48:14.514Z,34
2022-08-25T07:51:14.624Z,31
2022-08-25T07:54:14.572Z,36
2022-08-25T07:57:14.514Z,33
2022-08-25T08:00:14.551Z,31
2022-08-25T08:02:18.728Z,33
2022-08-25T08:04:14.555Z,39
2022-08-25T08:07:14.684Z,30
2022-08-25T08:10:37.366Z,32
2022-08-25T08:12:15.128Z,23
2022-08-25T08:14:14.856Z,33
2022-08-25T08:17:14.618Z,32
2022-08-25T08:20:14.538Z,34
2022-08-25T08:23:14.537Z,27
2022-08-25T08:26:14.534Z,29
2022-08-25T08:28:14.564Z,33
2022-08-25T08:30:14.587Z,34
2022-08-25T08:33:14.562Z,35
2022-08-25T08:36:15.065Z,27
2022-08-25T08:39:14.535Z,27
2022-08-25T08:41:14.555Z,19
2022-08-25T08:43:18.275Z,31
2022-08-25T08:46:14.573Z,34
2022-08-25T08:48:14.561Z,29
2022-08-25T08:51:14.558Z,25
2022-08-25T08:54:15.283Z,31
2022-08-25T08:56:14.659Z,27
2022-08-25T08:59:14.546Z,22
2022-08-25T09:01:14.610Z,32
2022-08-25T09:05:14.587Z,35
2022-08-25T09:07:14.584Z,22
2022-08-25T09:10:14.581Z,36
2022-08-25T09:12:17.120Z,33
2022-08-25T09:15:14.561Z,26
2022-08-25T09:17:14.582Z,24
2022-08-25T09:19:21.202Z,26
2022-08-25T09:21:14.578Z,31
2022-08-25T09:24:14.577Z,24
2022-08-25T09:26:14.568Z,36
2022-08-25T09:29:16.434Z,24
2022-08-25T09:32:14.560Z,36
2022-08-25T09:35:14.582Z,40
2022-08-25T09:37:14.643Z,29
2022-08-25T09:40:14.668Z,35
2022-08-25T09:43:14.583Z,31
2022-08-25T09:45:14.663Z,35
2022-08-25T09:48:14.745Z,34
2022-08-25T09:51:14.586Z,30
2022-08-25T09:54:14.581Z,36
2022-08-25T09:57:15.829Z,38
2022-08-25T10:00:14.705Z,33
2022-08-25T10:03:15.425Z,31
2022-08-25T10:06:14.567Z,31
2022-08-25T10:09:14.588Z,33
2022-08-25T10:11:14.788Z,35
2022-08-25T10:14:14.648Z,30
2022-08-25T10:16:20.031Z,32
2022-08-25T10:19:14.582Z,33
2022-08-25T10:21:14.695Z,36
2022-08-25T10:24:14.621Z,36
2022-08-25T10:26:14.601Z,33
2022-08-25T10:29:14.668Z,33
2022-08-25T10:32:14.581Z,33
2022-08-25T10:35:14.616Z,30
2022-08-25T10:38:21.588Z,30
2022-08-25T10:40:14.762Z,28
2022-08-25T10:42:30.584Z,23
2022-08-25T10:44:14.620Z,25
2022-08-25T10:47:14.620Z,31
2022-08-25T10:50:14.645Z,27
2022-08-25T10:53:14.619Z,33
2022-08-25T10:56:14.605Z,28
2022-08-25T10:58:14.668Z,29
2022-08-25T11:00:14.669Z,25
2022-08-25T11:03:15.032Z,28
2022-08-25T11:06:14.608Z,26
2022-08-25T11:08:14.625Z,28
2022-08-25T11:10:14.607Z,26
2022-08-25T11:12:14.623Z,24
2022-08-25T11:15:14.613Z,28
2022-08-25T11:18:15.076Z,24
2022-08-25T11:20:20.007Z,24
2022-08-25T11:22:14.630Z,27
2022-08-25T11:25:14.618Z,24
2022-08-25T11:28:14.594Z,27
2022-08-25T11:30:14.718Z,23
2022-08-25T11:33:14.636Z,24
2022-08-25T11:36:14.634Z,24
2022-08-25T11:38:14.732Z,23
2022-08-25T11:41:14.638Z,23
2022-08-25T11:44:14.610Z,24
2022-08-25T11:46:14.638Z,25
2022-08-25T11:48:14.621Z,24
2022-08-25T11:51:15.156Z,24
2022-08-25T11:54:14.768Z,23
2022-08-25T11:56:14.715Z,21
2022-08-25T11:59:14.630Z,20
2022-08-25T12:03:14.629Z,21
2022-08-25T12:05:14.732Z,24
2022-08-25T12:08:15.337Z,22
2022-08-25T12:10:14.761Z,23
2022-08-25T12:13:14.650Z,22
2022-08-25T12:16:14.656Z,21
2022-08-25T12:18:15.245Z,21
2022-08-25T12:21:14.601Z,18
2022-08-25T12:23:14.622Z,19
2022-08-25T12:25:14.803Z,50
2022-08-25T12:27:14.639Z,20
2022-08-25T12:30:16.154Z,23
2022-08-25T12:33:14.612Z,22
2022-08-25T12:35:14.648Z,20
2022-08-25T12:38:14.647Z,25
2022-08-25T12:41:14.618Z,21
2022-08-25T12:43:14.678Z,20
2022-08-25T12:46:14.791Z,19
2022-08-25T12:49:14.619Z,24
2022-08-25T12:51:14.644Z,21
2022-08-25T12:54:15.809Z,21
2022-08-25T12:57:14.644Z,20
2022-08-25T12:59:14.685Z,24
2022-08-25T13:02:14.801Z,19
2022-08-25T13:05:14.677Z,18
2022-08-25T13:08:15.240Z,22
2022-08-25T13:11:14.681Z,24
2022-08-25T13:14:14.649Z,23
2022-08-25T13:17:14.643Z,20
2022-08-25T13:20:14.647Z,19
2022-08-25T13:22:15.965Z,22
2022-08-25T13:25:14.632Z,19
2022-08-25T13:27:14.647Z,20
2022-08-25T13:30:14.696Z,18
2022-08-25T13:32:14.848Z,20
2022-08-25T13:34:19.332Z,20
2022-08-25T13:37:14.693Z,21
2022-08-25T13:40:14.798Z,22
2022-08-25T13:42:14.704Z,17
2022-08-25T13:45:14.630Z,24
2022-08-25T13:47:30.114Z,21
2022-08-25T13:50:14.767Z,20
2022-08-25T13:52:14.823Z,18
2022-08-25T13:55:14.660Z,18
2022-08-25T13:57:14.678Z,21
2022-08-25T14:00:14.761Z,18
2022-08-25T14:03:14.843Z,18
2022-08-25T14:05:14.693Z,17
2022-08-25T14:07:14.709Z,21
2022-08-25T14:10:14.701Z,17
2022-08-25T14:12:14.721Z,21
2022-08-25T14:15:14.763Z,18
2022-08-25T14:18:14.709Z,18
2022-08-25T14:20:14.748Z,22
2022-08-25T14:23:16.359Z,20
2022-08-25T14:25:14.721Z,21
2022-08-25T14:28:14.687Z,20
2022-08-25T14:30:15.075Z,18
2022-08-25T14:32:15.019Z,18
2022-08-25T14:35:17.140Z,17
2022-08-25T14:37:15.435Z,20
2022-08-25T14:40:14.818Z,17
2022-08-25T14:43:14.705Z,20
2022-08-25T14:46:15.552Z,20
2022-08-25T14:49:15.212Z,21
2022-08-25T14:52:14.761Z,15
2022-08-25T14:55:17.407Z,20
2022-08-25T14:58:14.707Z,19
2022-08-25T15:03:15.140Z,22
2022-08-25T15:06:14.740Z,19
2022-08-25T15:09:14.718Z,19
2022-08-25T15:12:17.755Z,21
2022-08-25T15:14:14.716Z,16
2022-08-25T15:17:14.709Z,20
2022-08-25T15:20:30.285Z,19
2022-08-25T15:22:14.713Z,22
2022-08-25T15:25:14.680Z,18
2022-08-25T15:27:14.786Z,19
2022-08-25T15:30:14.701Z,21
2022-08-25T15:33:14.689Z,17
2022-08-25T15:36:15.282Z,17
2022-08-25T15:38:14.686Z,19
2022-08-25T15:41:14.721Z,22
2022-08-25T15:44:14.692Z,18
2022-08-25T15:47:14.725Z,17
2022-08-25T15:49:14.685Z,18
2022-08-25T15:52:14.688Z,20
2022-08-25T15:55:14.684Z,22
2022-08-25T15:57:16.876Z,18
2022-08-25T15:59:14.712Z,19
2022-08-25T16:02:15.016Z,15
2022-08-25T16:05:16.299Z,17
2022-08-25T16:08:19.153Z,17
2022-08-25T16:10:14.744Z,20
2022-08-25T16:12:14.761Z,20
2022-08-25T16:15:14.722Z,19
2022-08-25T16:17:14.719Z,19
2022-08-25T16:19:14.734Z,18
2022-08-25T16:21:14.748Z,19
2022-08-25T16:23:14.756Z,25
2022-08-25T16:26:14.778Z,45
2022-08-25T16:29:14.770Z,21
2022-08-25T16:32:14.775Z,15
2022-08-25T16:34:14.770Z,17
2022-08-25T16:37:14.939Z,19
2022-08-25T16:40:15.056Z,20
2022-08-25T16:43:14.768Z,19
2022-08-25T16:45:14.751Z,20
2022-08-25T16:48:14.785Z,17
2022-08-25T16:51:14.741Z,15
2022-08-25T16:54:14.787Z,19
2022-08-25T16:56:14.793Z,23
2022-08-25T16:59:14.787Z,20
2022-08-25T17:02:14.839Z,19
2022-08-25T17:04:14.790Z,18
2022-08-25T17:07:14.775Z,17
2022-08-25T17:09:15.086Z,16
2022-08-25T17:11:14.760Z,19
2022-08-25T17:13:15.086Z,17
2022-08-25T17:16:14.968Z,17
2022-08-25T17:18:14.798Z,17
2022-08-25T17:20:14.814Z,18
2022-08-25T17:23:14.732Z,17
2022-08-25T17:25:14.779Z,17
2022-08-25T17:27:15.794Z,20
2022-08-25T17:29:14.776Z,21
2022-08-25T17:32:14.759Z,19
2022-08-25T17:35:14.805Z,21
2022-08-25T17:37:14.798Z,24
2022-08-25T17:40:14.797Z,20
2022-08-25T17:43:14.805Z,19
2022-08-25T17:46:14.819Z,18
2022-08-25T17:48:46.915Z,21
2022-08-25T17:51:15.814Z,20
2022-08-25T17:54:14.803Z,22
2022-08-25T17:56:14.794Z,19
2022-08-25T17:59:14.823Z,22
2022-08-25T18:02:14.807Z,21
2022-08-25T18:05:14.786Z,17
2022-08-25T18:07:14.784Z,22
2022-08-25T18:09:14.821Z,24
2022-08-25T18:12:14.822Z,22
2022-08-25T18:14:14.801Z,23
2022-08-25T18:17:14.806Z,24
2022-08-25T18:19:14.788Z,25
2022-08-25T18:21:14.814Z,21
2022-08-25T18:24:14.789Z,24
2022-08-25T18:26:14.795Z,24
2022-08-25T18:28:14.799Z,21
2022-08-25T18:31:14.849Z,23
2022-08-25T18:33:14.833Z,23
2022-08-25T18:36:14.822Z,29
2022-08-25T18:38:14.808Z,27
2022-08-25T18:41:14.841Z,21
2022-08-25T18:44:15.390Z,23
2022-08-25T18:46:14.845Z,20
2022-08-25T18:49:15.763Z,22
2022-08-25T18:51:14.819Z,20
2022-08-25T18:53:14.818Z,24
2022-08-25T18:56:14.821Z,22
2022-08-25T18:58:14.810Z,20
2022-08-25T19:00:14.842Z,20
2022-08-25T19:03:14.815Z,22
2022-08-25T19:05:14.816Z,22
2022-08-25T19:08:14.811Z,21
2022-08-25T19:10:14.833Z,20
2022-08-25T19:13:47.069Z,22
2022-08-25T19:16:17.505Z,22
2022-08-25T19:18:15.074Z,23
2022-08-25T19:21:14.909Z,28
2022-08-25T19:24:14.840Z,23
2022-08-25T19:26:17.187Z,23
2022-08-25T19:28:14.841Z,19
2022-08-25T19:30:14.884Z,19
2022-08-25T19:33:14.838Z,23
2022-08-25T19:35:14.851Z,22
2022-08-25T19:37:14.851Z,24
2022-08-25T19:40:14.942Z,22
2022-08-25T19:43:14.819Z,27
2022-08-25T19:46:14.887Z,25
2022-08-25T19:48:14.805Z,24
2022-08-25T19:51:14.881Z,28
2022-08-25T19:53:14.857Z,25
2022-08-25T19:56:14.868Z,23
2022-08-25T19:59:46.745Z,22
2022-08-25T20:02:15.275Z,25
2022-08-25T20:05:14.803Z,23
2022-08-25T20:08:14.892Z,22
2022-08-25T20:10:14.859Z,24
2022-08-25T20:13:14.864Z,22
2022-08-25T20:15:14.825Z,23
2022-08-25T20:18:14.850Z,26
2022-08-25T20:20:14.835Z,23
2022-08-25T20:23:14.847Z,26
2022-08-25T20:25:14.828Z,23
2022-08-25T20:28:18.830Z,26
2022-08-25T20:30:14.915Z,23
2022-08-25T20:33:20.111Z,24
2022-08-25T20:36:14.839Z,23
2022-08-25T20:38:14.887Z,23
2022-08-25T20:40:14.869Z,21
2022-08-25T20:43:14.872Z,23
2022-08-25T20:45:15.359Z,22
2022-08-25T20:48:14.852Z,23
2022-08-25T20:50:15.034Z,24
2022-08-25T20:53:14.868Z,27
2022-08-25T20:55:14.851Z,24
2022-08-25T20:58:14.858Z,24
2022-08-25T21:01:17.473Z,31
2022-08-25T21:04:14.972Z,27
2022-08-25T21:07:14.852Z,26
2022-08-25T21:09:15.987Z,24
2022-08-25T21:12:14.894Z,25
2022-08-25T21:15:15.373Z,25
2022-08-25T21:17:14.882Z,24
2022-08-25T21:19:14.892Z,23
2022-08-25T21:22:14.852Z,27
2022-08-25T21:24:14.836Z,26
2022-08-25T21:26:14.863Z,26
2022-08-25T21:28:47.667Z,28
2022-08-25T21:31:14.948Z,27
2022-08-25T21:35:15.143Z,25
2022-08-25T21:38:14.896Z,26
2022-08-25T21:40:14.965Z,27
2022-08-25T21:43:14.868Z,26
2022-08-25T21:46:14.973Z,26
2022-08-25T21:48:14.930Z,26
2022-08-25T21:51:14.925Z,27
2022-08-25T21:54:14.923Z,29
2022-08-25T21:57:14.866Z,28
2022-08-25T22:00:14.951Z,28
2022-08-25T22:02:17.135Z,29
2022-08-25T22:05:15.398Z,27
2022-08-25T22:08:14.894Z,27
2022-08-25T22:10:16.901Z,30
2022-08-25T22:12:14.904Z,28
2022-08-25T22:15:14.878Z,27
2022-08-25T22:17:16.768Z,25
2022-08-25T22:20:14.922Z,28
2022-08-25T22:23:20.379Z,29
2022-08-25T22:26:14.930Z,27
2022-08-25T22:29:24.134Z,28
2022-08-25T22:31:14.938Z,30
2022-08-25T22:34:14.880Z,29
2022-08-25T22:36:14.926Z,33
2022-08-25T22:39:14.898Z,26
2022-08-25T22:41:18.984Z,27
2022-08-25T22:44:14.920Z,26
2022-08-25T22:47:14.894Z,26
2022-08-25T22:49:14.888Z,26
2022-08-25T22:51:14.916Z,27
2022-08-25T22:54:14.908Z,26
2022-08-25T22:56:14.925Z,28
2022-08-25T22:59:30.749Z,31
2022-08-25T23:02:14.936Z,28
2022-08-25T23:05:15.007Z,26
2022-08-25T23:07:14.910Z,30
2022-08-25T23:09:14.918Z,28
2022-08-25T23:11:15.038Z,31
2022-08-25T23:14:14.953Z,34
2022-08-25T23:16:14.975Z,30
2022-08-25T23:19:14.923Z,27
2022-08-25T23:21:15.349Z,30
2022-08-25T23:25:14.915Z,28
2022-08-25T23:27:14.971Z,29
2022-08-25T23:29:18.212Z,29
2022-08-25T23:33:14.951Z,27
2022-08-25T23:36:14.931Z,33
2022-08-25T23:38:14.942Z,28
2022-08-25T23:41:15.011Z,29
2022-08-25T23:44:17.265Z,31
2022-08-25T23:46:15.006Z,29
2022-08-25T23:49:18.030Z,31
2022-08-25T23:52:14.936Z,30
2022-08-25T23:54:15.981Z,31
2022-08-25T23:56:15.014Z,32
2022-08-25T23:59:14.948Z,28
